sensor_id;sensor_type;location;lat;lon;timestamp;pressure;altitude;pressure_sealevel;temperature;humidity
44351;BME280;62766;62.622;17.912;2023-04-24T00:02:22;99929.62;;;0.15;67.28
44351;BME280;62766;62.622;17.912;2023-04-24T00:04:50;99930.90;;;0.14;67.36
44351;BME280;62766;62.622;17.912;2023-04-24T00:07:19;99930.08;;;0.19;67.49
44351;BME280;62766;62.622;17.912;2023-04-24T00:09:47;99926.32;;;0.20;67.58
44351;BME280;62766;62.622;17.912;2023-04-24T00:12:15;99925.35;;;0.18;67.55
44351;BME280;62766;62.622;17.912;2023-04-24T00:14:44;99925.15;;;0.14;67.47
44351;BME280;62766;62.622;17.912;2023-04-24T00:17:13;99930.62;;;0.13;67.52
44351;BME280;62766;62.622;17.912;2023-04-24T00:19:41;99932.07;;;0.20;67.74
44351;BME280;62766;62.622;17.912;2023-04-24T00:22:10;99934.95;;;0.13;67.68
44351;BME280;62766;62.622;17.912;2023-04-24T00:24:38;99934.56;;;0.25;67.81
44351;BME280;62766;62.622;17.912;2023-04-24T00:27:07;99933.33;;;0.10;67.76
44351;BME280;62766;62.622;17.912;2023-04-24T00:29:35;99927.79;;;0.09;68.13
44351;BME280;62766;62.622;17.912;2023-04-24T00:32:04;99931.93;;;-0.01;68.42
44351;BME280;62766;62.622;17.912;2023-04-24T00:34:32;99932.14;;;0.04;68.54
44351;BME280;62766;62.622;17.912;2023-04-24T00:37:01;99934.43;;;0.02;68.72
44351;BME280;62766;62.622;17.912;2023-04-24T00:39:29;99927.09;;;0.01;68.64
44351;BME280;62766;62.622;17.912;2023-04-24T00:41:58;99923.44;;;-0.10;68.88
44351;BME280;62766;62.622;17.912;2023-04-24T00:44:27;99922.37;;;-0.01;69.07
44351;BME280;62766;62.622;17.912;2023-04-24T00:46:55;99921.73;;;0.10;69.06
44351;BME280;62766;62.622;17.912;2023-04-24T00:49:24;99925.27;;;0.12;68.96
44351;BME280;62766;62.622;17.912;2023-04-24T00:51:52;99924.99;;;0.01;69.10
44351;BME280;62766;62.622;17.912;2023-04-24T00:54:21;99925.58;;;0.06;69.13
44351;BME280;62766;62.622;17.912;2023-04-24T00:56:49;99929.01;;;-0.00;69.23
44351;BME280;62766;62.622;17.912;2023-04-24T00:59:18;99927.80;;;0.08;69.45
44351;BME280;62766;62.622;17.912;2023-04-24T01:01:46;99926.29;;;-0.00;69.55
44351;BME280;62766;62.622;17.912;2023-04-24T01:04:16;99923.23;;;0.01;69.52
44351;BME280;62766;62.622;17.912;2023-04-24T01:06:45;99927.90;;;-0.01;69.47
44351;BME280;62766;62.622;17.912;2023-04-24T01:09:15;99929.10;;;-0.07;69.50
44351;BME280;62766;62.622;17.912;2023-04-24T01:11:44;99922.48;;;-0.07;69.52
44351;BME280;62766;62.622;17.912;2023-04-24T01:14:13;99929.73;;;0.09;69.72
44351;BME280;62766;62.622;17.912;2023-04-24T01:16:41;99932.81;;;-0.01;69.63
44351;BME280;62766;62.622;17.912;2023-04-24T01:19:10;99932.11;;;-0.05;69.71
44351;BME280;62766;62.622;17.912;2023-04-24T01:21:38;99935.93;;;-0.06;69.70
44351;BME280;62766;62.622;17.912;2023-04-24T01:24:07;99934.74;;;0.07;69.67
44351;BME280;62766;62.622;17.912;2023-04-24T01:26:36;99934.99;;;-0.04;69.65
44351;BME280;62766;62.622;17.912;2023-04-24T01:29:04;99934.19;;;0.05;69.54
44351;BME280;62766;62.622;17.912;2023-04-24T01:31:33;99939.43;;;-0.11;69.51
44351;BME280;62766;62.622;17.912;2023-04-24T01:34:02;99943.28;;;-0.04;69.62
44351;BME280;62766;62.622;17.912;2023-04-24T01:36:30;99945.62;;;-0.07;69.68
44351;BME280;62766;62.622;17.912;2023-04-24T01:39:00;99947.53;;;-0.02;69.56
44351;BME280;62766;62.622;17.912;2023-04-24T01:41:29;99954.28;;;0.03;69.59
44351;BME280;62766;62.622;17.912;2023-04-24T01:43:57;99955.81;;;0.03;69.61
44351;BME280;62766;62.622;17.912;2023-04-24T01:46:26;99955.13;;;-0.01;69.47
44351;BME280;62766;62.622;17.912;2023-04-24T01:48:54;99955.82;;;-0.05;69.61
44351;BME280;62766;62.622;17.912;2023-04-24T01:51:23;99952.71;;;-0.12;69.75
44351;BME280;62766;62.622;17.912;2023-04-24T01:53:53;99950.15;;;-0.16;69.75
44351;BME280;62766;62.622;17.912;2023-04-24T01:56:22;99947.49;;;-0.07;69.68
44351;BME280;62766;62.622;17.912;2023-04-24T01:58:53;99948.25;;;-0.08;69.57
44351;BME280;62766;62.622;17.912;2023-04-24T02:01:24;99948.79;;;-0.02;69.63
44351;BME280;62766;62.622;17.912;2023-04-24T02:03:52;99949.93;;;-0.09;69.33
44351;BME280;62766;62.622;17.912;2023-04-24T02:06:21;99955.36;;;-0.03;69.23
44351;BME280;62766;62.622;17.912;2023-04-24T02:08:49;99959.11;;;-0.15;68.92
44351;BME280;62766;62.622;17.912;2023-04-24T02:11:18;99958.27;;;-0.04;68.95
44351;BME280;62766;62.622;17.912;2023-04-24T02:13:46;99954.92;;;-0.08;69.03
44351;BME280;62766;62.622;17.912;2023-04-24T02:16:15;99945.05;;;-0.00;68.73
44351;BME280;62766;62.622;17.912;2023-04-24T02:18:44;99944.77;;;-0.06;68.63
44351;BME280;62766;62.622;17.912;2023-04-24T02:21:12;99943.46;;;0.02;68.60
44351;BME280;62766;62.622;17.912;2023-04-24T02:23:40;99941.77;;;-0.07;68.50
44351;BME280;62766;62.622;17.912;2023-04-24T02:26:10;99949.55;;;-0.03;68.46
44351;BME280;62766;62.622;17.912;2023-04-24T02:28:38;99954.99;;;-0.02;68.37
44351;BME280;62766;62.622;17.912;2023-04-24T02:31:07;99962.35;;;-0.09;68.09
44351;BME280;62766;62.622;17.912;2023-04-24T02:33:35;99956.03;;;-0.05;67.97
44351;BME280;62766;62.622;17.912;2023-04-24T02:36:04;99959.54;;;0.06;67.97
44351;BME280;62766;62.622;17.912;2023-04-24T02:38:33;99963.99;;;0.08;67.85
44351;BME280;62766;62.622;17.912;2023-04-24T02:41:01;99966.78;;;-0.07;67.87
44351;BME280;62766;62.622;17.912;2023-04-24T02:43:30;99964.42;;;-0.03;67.92
44351;BME280;62766;62.622;17.912;2023-04-24T02:45:58;99964.54;;;-0.05;68.00
44351;BME280;62766;62.622;17.912;2023-04-24T02:48:27;99963.19;;;-0.06;67.75
44351;BME280;62766;62.622;17.912;2023-04-24T02:50:55;99960.24;;;0.12;67.83
44351;BME280;62766;62.622;17.912;2023-04-24T02:53:25;99953.22;;;0.05;67.51
44351;BME280;62766;62.622;17.912;2023-04-24T02:55:52;99952.43;;;-0.01;67.19
44351;BME280;62766;62.622;17.912;2023-04-24T02:58:22;99959.89;;;-0.04;67.16
44351;BME280;62766;62.622;17.912;2023-04-24T03:00:56;99958.80;;;0.06;67.05
44351;BME280;62766;62.622;17.912;2023-04-24T03:03:25;99957.88;;;0.00;66.97
44351;BME280;62766;62.622;17.912;2023-04-24T03:05:53;99960.63;;;0.00;66.97
44351;BME280;62766;62.622;17.912;2023-04-24T03:08:23;99965.60;;;0.07;66.50
44351;BME280;62766;62.622;17.912;2023-04-24T03:10:52;99960.16;;;0.09;66.44
44351;BME280;62766;62.622;17.912;2023-04-24T03:13:21;99961.91;;;0.11;66.43
44351;BME280;62766;62.622;17.912;2023-04-24T03:15:49;99960.57;;;0.08;66.43
44351;BME280;62766;62.622;17.912;2023-04-24T03:18:18;99957.53;;;0.07;66.38
44351;BME280;62766;62.622;17.912;2023-04-24T03:20:47;99964.41;;;-0.05;66.29
44351;BME280;62766;62.622;17.912;2023-04-24T03:23:15;99962.95;;;-0.01;66.48
44351;BME280;62766;62.622;17.912;2023-04-24T03:25:43;99963.40;;;0.06;66.36
44351;BME280;62766;62.622;17.912;2023-04-24T03:28:12;99966.22;;;0.10;66.37
44351;BME280;62766;62.622;17.912;2023-04-24T03:30:41;99969.29;;;-0.02;66.31
44351;BME280;62766;62.622;17.912;2023-04-24T03:33:09;99975.56;;;0.09;66.25
44351;BME280;62766;62.622;17.912;2023-04-24T03:35:38;99978.69;;;0.14;66.38
44351;BME280;62766;62.622;17.912;2023-04-24T03:38:06;99974.63;;;0.12;66.36
44351;BME280;62766;62.622;17.912;2023-04-24T03:40:35;99982.58;;;0.02;66.17
44351;BME280;62766;62.622;17.912;2023-04-24T03:43:03;99986.44;;;0.11;66.01
44351;BME280;62766;62.622;17.912;2023-04-24T03:45:32;99987.20;;;0.13;65.81
44351;BME280;62766;62.622;17.912;2023-04-24T03:48:00;99983.14;;;0.29;65.78
44351;BME280;62766;62.622;17.912;2023-04-24T03:50:29;99992.77;;;0.36;65.58
44351;BME280;62766;62.622;17.912;2023-04-24T03:52:57;100002.53;;;0.32;65.29
44351;BME280;62766;62.622;17.912;2023-04-24T03:55:26;100001.80;;;0.34;65.20
44351;BME280;62766;62.622;17.912;2023-04-24T03:57:54;100009.33;;;0.37;64.97
44351;BME280;62766;62.622;17.912;2023-04-24T04:03:24;100028.83;;;0.22;64.86
44351;BME280;62766;62.622;17.912;2023-04-24T04:05:53;100031.24;;;0.52;64.87
44351;BME280;62766;62.622;17.912;2023-04-24T04:08:21;100021.98;;;0.48;64.59
44351;BME280;62766;62.622;17.912;2023-04-24T04:10:50;100026.35;;;0.50;64.45
44351;BME280;62766;62.622;17.912;2023-04-24T04:13:18;100038.82;;;0.56;64.38
44351;BME280;62766;62.622;17.912;2023-04-24T04:15:47;100041.52;;;0.68;64.10
44351;BME280;62766;62.622;17.912;2023-04-24T04:18:16;100043.46;;;0.53;63.75
44351;BME280;62766;62.622;17.912;2023-04-24T04:20:44;100041.81;;;0.50;63.89
44351;BME280;62766;62.622;17.912;2023-04-24T04:23:13;100043.46;;;0.50;63.96
44351;BME280;62766;62.622;17.912;2023-04-24T04:25:41;100037.70;;;0.54;64.00
44351;BME280;62766;62.622;17.912;2023-04-24T04:28:10;100036.67;;;0.65;64.04
44351;BME280;62766;62.622;17.912;2023-04-24T04:30:38;100041.65;;;0.59;63.72
44351;BME280;62766;62.622;17.912;2023-04-24T04:33:07;100048.23;;;0.72;63.79
44351;BME280;62766;62.622;17.912;2023-04-24T04:35:35;100047.64;;;0.72;63.60
44351;BME280;62766;62.622;17.912;2023-04-24T04:38:04;100050.65;;;0.62;63.55
44351;BME280;62766;62.622;17.912;2023-04-24T04:40:32;100056.44;;;0.66;63.50
44351;BME280;62766;62.622;17.912;2023-04-24T04:43:01;100061.13;;;0.74;63.57
44351;BME280;62766;62.622;17.912;2023-04-24T04:45:29;100064.03;;;0.81;63.25
44351;BME280;62766;62.622;17.912;2023-04-24T04:47:58;100060.61;;;0.78;63.17
44351;BME280;62766;62.622;17.912;2023-04-24T04:50:26;100052.65;;;0.83;63.08
44351;BME280;62766;62.622;17.912;2023-04-24T04:52:55;100056.50;;;1.00;63.11
44351;BME280;62766;62.622;17.912;2023-04-24T04:55:23;100061.75;;;1.03;62.81
44351;BME280;62766;62.622;17.912;2023-04-24T04:57:52;100063.34;;;0.93;62.57
44351;BME280;62766;62.622;17.912;2023-04-24T05:00:20;100068.53;;;0.89;62.67
44351;BME280;62766;62.622;17.912;2023-04-24T05:02:49;100079.03;;;1.05;62.43
44351;BME280;62766;62.622;17.912;2023-04-24T05:05:17;100086.68;;;1.01;62.42
44351;BME280;62766;62.622;17.912;2023-04-24T05:07:46;100090.29;;;1.13;62.38
44351;BME280;62766;62.622;17.912;2023-04-24T05:10:15;100093.99;;;1.20;62.07
44351;BME280;62766;62.622;17.912;2023-04-24T05:12:44;100099.94;;;1.27;61.85
44351;BME280;62766;62.622;17.912;2023-04-24T05:15:14;100104.17;;;1.17;61.75
44351;BME280;62766;62.622;17.912;2023-04-24T05:17:43;100107.72;;;1.27;61.66
44351;BME280;62766;62.622;17.912;2023-04-24T05:20:12;100113.13;;;1.50;61.11
44351;BME280;62766;62.622;17.912;2023-04-24T05:22:40;100117.60;;;1.38;61.29
44351;BME280;62766;62.622;17.912;2023-04-24T05:25:09;100124.45;;;1.52;61.14
44351;BME280;62766;62.622;17.912;2023-04-24T05:27:38;100128.58;;;1.44;61.02
44351;BME280;62766;62.622;17.912;2023-04-24T05:30:08;100133.26;;;1.48;60.82
44351;BME280;62766;62.622;17.912;2023-04-24T05:32:36;100141.13;;;1.65;60.68
44351;BME280;62766;62.622;17.912;2023-04-24T05:35:05;100151.02;;;1.73;60.29
44351;BME280;62766;62.622;17.912;2023-04-24T05:37:33;100156.28;;;1.72;59.98
44351;BME280;62766;62.622;17.912;2023-04-24T05:40:02;100156.10;;;1.78;59.83
44351;BME280;62766;62.622;17.912;2023-04-24T05:42:30;100161.48;;;1.72;59.79
44351;BME280;62766;62.622;17.912;2023-04-24T05:44:58;100167.39;;;1.77;59.73
44351;BME280;62766;62.622;17.912;2023-04-24T05:47:27;100171.07;;;1.87;59.37
44351;BME280;62766;62.622;17.912;2023-04-24T05:49:56;100172.85;;;1.79;59.40
44351;BME280;62766;62.622;17.912;2023-04-24T05:52:25;100172.45;;;1.84;59.45
44351;BME280;62766;62.622;17.912;2023-04-24T05:54:53;100173.06;;;2.05;58.96
44351;BME280;62766;62.622;17.912;2023-04-24T05:57:22;100176.21;;;2.05;58.84
44351;BME280;62766;62.622;17.912;2023-04-24T05:59:50;100179.95;;;2.28;58.33
44351;BME280;62766;62.622;17.912;2023-04-24T06:02:18;100182.47;;;2.32;58.10
44351;BME280;62766;62.622;17.912;2023-04-24T06:04:47;100187.16;;;2.29;57.81
44351;BME280;62766;62.622;17.912;2023-04-24T06:07:16;100189.04;;;2.43;57.52
44351;BME280;62766;62.622;17.912;2023-04-24T06:09:44;100194.67;;;2.53;57.63
44351;BME280;62766;62.622;17.912;2023-04-24T06:12:13;100196.40;;;2.54;57.22
44351;BME280;62766;62.622;17.912;2023-04-24T06:14:41;100201.33;;;2.65;56.99
44351;BME280;62766;62.622;17.912;2023-04-24T06:17:09;100199.58;;;2.70;56.73
44351;BME280;62766;62.622;17.912;2023-04-24T06:19:38;100193.98;;;2.66;56.81
44351;BME280;62766;62.622;17.912;2023-04-24T06:22:06;100195.60;;;2.70;56.82
44351;BME280;62766;62.622;17.912;2023-04-24T06:24:35;100195.69;;;2.77;55.82
44351;BME280;62766;62.622;17.912;2023-04-24T06:27:03;100188.66;;;3.09;55.91
44351;BME280;62766;62.622;17.912;2023-04-24T06:29:32;100193.61;;;3.07;55.64
44351;BME280;62766;62.622;17.912;2023-04-24T06:32:02;100202.21;;;3.27;55.09
44351;BME280;62766;62.622;17.912;2023-04-24T06:34:30;100200.02;;;3.28;54.56
44351;BME280;62766;62.622;17.912;2023-04-24T06:36:59;100197.95;;;3.41;54.91
44351;BME280;62766;62.622;17.912;2023-04-24T06:39:27;100201.25;;;3.60;54.32
44351;BME280;62766;62.622;17.912;2023-04-24T06:41:56;100205.39;;;3.41;53.75
44351;BME280;62766;62.622;17.912;2023-04-24T06:44:24;100208.67;;;3.43;53.90
44351;BME280;62766;62.622;17.912;2023-04-24T06:46:53;100214.19;;;3.43;54.17
44351;BME280;62766;62.622;17.912;2023-04-24T06:49:21;100218.07;;;3.50;54.18
44351;BME280;62766;62.622;17.912;2023-04-24T06:51:50;100219.88;;;3.60;53.55
44351;BME280;62766;62.622;17.912;2023-04-24T06:54:18;100224.37;;;3.52;53.44
44351;BME280;62766;62.622;17.912;2023-04-24T06:56:47;100224.50;;;3.65;53.47
44351;BME280;62766;62.622;17.912;2023-04-24T06:59:16;100227.94;;;3.67;53.31
44351;BME280;62766;62.622;17.912;2023-04-24T07:01:43;100226.90;;;3.78;53.12
44351;BME280;62766;62.622;17.912;2023-04-24T07:04:12;100226.78;;;3.83;52.77
44351;BME280;62766;62.622;17.912;2023-04-24T07:06:40;100228.34;;;3.98;52.76
44351;BME280;62766;62.622;17.912;2023-04-24T07:09:09;100232.30;;;4.15;52.48
44351;BME280;62766;62.622;17.912;2023-04-24T07:11:37;100239.98;;;4.22;51.96
44351;BME280;62766;62.622;17.912;2023-04-24T07:14:06;100252.74;;;4.29;51.93
44351;BME280;62766;62.622;17.912;2023-04-24T07:16:34;100258.49;;;4.34;51.61
44351;BME280;62766;62.622;17.912;2023-04-24T07:19:03;100265.41;;;4.24;50.89
44351;BME280;62766;62.622;17.912;2023-04-24T07:21:32;100269.26;;;4.39;51.07
44351;BME280;62766;62.622;17.912;2023-04-24T07:24:00;100264.74;;;4.46;50.80
44351;BME280;62766;62.622;17.912;2023-04-24T07:26:30;100266.79;;;4.27;50.43
44351;BME280;62766;62.622;17.912;2023-04-24T07:28:59;100271.11;;;4.17;51.11
44351;BME280;62766;62.622;17.912;2023-04-24T07:31:28;100268.53;;;4.43;50.58
44351;BME280;62766;62.622;17.912;2023-04-24T07:33:56;100273.92;;;4.33;50.37
44351;BME280;62766;62.622;17.912;2023-04-24T07:36:24;100280.01;;;4.28;50.61
44351;BME280;62766;62.622;17.912;2023-04-24T07:38:54;100278.52;;;4.49;50.82
44351;BME280;62766;62.622;17.912;2023-04-24T07:41:22;100276.68;;;4.68;49.96
44351;BME280;62766;62.622;17.912;2023-04-24T07:43:50;100281.41;;;4.72;49.97
44351;BME280;62766;62.622;17.912;2023-04-24T07:46:19;100282.99;;;4.73;49.67
44351;BME280;62766;62.622;17.912;2023-04-24T07:48:47;100285.58;;;4.76;49.63
44351;BME280;62766;62.622;17.912;2023-04-24T07:51:16;100280.97;;;4.75;49.50
44351;BME280;62766;62.622;17.912;2023-04-24T07:53:44;100281.41;;;4.80;49.26
44351;BME280;62766;62.622;17.912;2023-04-24T07:56:13;100279.34;;;4.75;49.48
44351;BME280;62766;62.622;17.912;2023-04-24T07:58:42;100274.62;;;4.89;49.66
44351;BME280;62766;62.622;17.912;2023-04-24T08:01:10;100279.34;;;5.02;49.12
44351;BME280;62766;62.622;17.912;2023-04-24T08:03:38;100282.48;;;5.09;48.90
44351;BME280;62766;62.622;17.912;2023-04-24T08:06:07;100285.01;;;5.21;48.38
44351;BME280;62766;62.622;17.912;2023-04-24T08:08:35;100285.32;;;5.17;48.46
44351;BME280;62766;62.622;17.912;2023-04-24T08:11:04;100286.45;;;5.28;48.11
44351;BME280;62766;62.622;17.912;2023-04-24T08:13:33;100290.52;;;5.25;48.29
44351;BME280;62766;62.622;17.912;2023-04-24T08:16:01;100295.98;;;5.27;47.85
44351;BME280;62766;62.622;17.912;2023-04-24T08:18:29;100295.07;;;5.37;47.91
44351;BME280;62766;62.622;17.912;2023-04-24T08:20:58;100296.84;;;5.43;47.53
44351;BME280;62766;62.622;17.912;2023-04-24T08:23:26;100299.83;;;5.39;47.48
44351;BME280;62766;62.622;17.912;2023-04-24T08:25:55;100296.33;;;5.34;47.28
44351;BME280;62766;62.622;17.912;2023-04-24T08:28:25;100301.49;;;5.26;47.29
44351;BME280;62766;62.622;17.912;2023-04-24T08:30:54;100305.23;;;5.18;47.78
44351;BME280;62766;62.622;17.912;2023-04-24T08:33:23;100305.33;;;5.26;47.84
44351;BME280;62766;62.622;17.912;2023-04-24T08:35:51;100302.61;;;5.31;47.56
44351;BME280;62766;62.622;17.912;2023-04-24T08:38:21;100304.82;;;5.31;47.49
44351;BME280;62766;62.622;17.912;2023-04-24T08:40:49;100300.28;;;5.45;47.46
44351;BME280;62766;62.622;17.912;2023-04-24T08:43:18;100300.18;;;5.57;47.14
44351;BME280;62766;62.622;17.912;2023-04-24T08:45:50;100294.51;;;5.64;47.06
44351;BME280;62766;62.622;17.912;2023-04-24T08:48:18;100293.54;;;5.57;46.65
44351;BME280;62766;62.622;17.912;2023-04-24T08:50:48;100301.84;;;5.60;46.44
44351;BME280;62766;62.622;17.912;2023-04-24T08:53:18;100308.51;;;5.72;46.79
44351;BME280;62766;62.622;17.912;2023-04-24T08:55:47;100313.38;;;5.82;46.45
44351;BME280;62766;62.622;17.912;2023-04-24T08:58:16;100316.98;;;5.83;46.27
44351;BME280;62766;62.622;17.912;2023-04-24T09:00:46;100315.95;;;5.84;46.25
44351;BME280;62766;62.622;17.912;2023-04-24T09:03:16;100318.69;;;6.00;46.03
44351;BME280;62766;62.622;17.912;2023-04-24T09:05:46;100322.33;;;6.13;46.09
44351;BME280;62766;62.622;17.912;2023-04-24T09:08:17;100324.46;;;6.20;45.99
44351;BME280;62766;62.622;17.912;2023-04-24T09:10:46;100326.21;;;6.32;45.19
44351;BME280;62766;62.622;17.912;2023-04-24T09:13:16;100327.73;;;6.47;44.91
44351;BME280;62766;62.622;17.912;2023-04-24T09:15:45;100332.55;;;6.58;44.75
44351;BME280;62766;62.622;17.912;2023-04-24T09:18:14;100343.47;;;6.49;45.01
44351;BME280;62766;62.622;17.912;2023-04-24T09:21:01;100351.13;;;6.71;44.85
44351;BME280;62766;62.622;17.912;2023-04-24T09:23:30;100355.68;;;6.70;44.87
44351;BME280;62766;62.622;17.912;2023-04-24T09:26:00;100362.79;;;6.72;44.50
44351;BME280;62766;62.622;17.912;2023-04-24T09:28:31;100370.73;;;6.83;44.41
44351;BME280;62766;62.622;17.912;2023-04-24T09:31:05;100376.61;;;6.95;43.82
44351;BME280;62766;62.622;17.912;2023-04-24T09:33:35;100376.22;;;6.93;43.89
44351;BME280;62766;62.622;17.912;2023-04-24T09:36:04;100373.78;;;6.88;44.01
44351;BME280;62766;62.622;17.912;2023-04-24T09:38:34;100372.18;;;6.99;43.48
44351;BME280;62766;62.622;17.912;2023-04-24T09:41:05;100379.77;;;6.98;43.37
44351;BME280;62766;62.622;17.912;2023-04-24T09:43:35;100382.10;;;7.03;43.25
44351;BME280;62766;62.622;17.912;2023-04-24T09:46:06;100384.65;;;7.24;43.23
44351;BME280;62766;62.622;17.912;2023-04-24T09:48:35;100388.91;;;7.33;42.86
44351;BME280;62766;62.622;17.912;2023-04-24T09:51:05;100396.01;;;7.47;43.00
44351;BME280;62766;62.622;17.912;2023-04-24T09:53:34;100401.51;;;7.17;42.31
44351;BME280;62766;62.622;17.912;2023-04-24T09:56:07;100404.35;;;7.40;42.71
44351;BME280;62766;62.622;17.912;2023-04-24T09:58:36;100404.40;;;7.13;42.49
44351;BME280;62766;62.622;17.912;2023-04-24T10:03:22;100411.17;;;7.02;43.38
44351;BME280;62766;62.622;17.912;2023-04-24T10:05:52;100418.38;;;6.90;42.86
44351;BME280;62766;62.622;17.912;2023-04-24T10:08:21;100423.36;;;6.81;42.82
44351;BME280;62766;62.622;17.912;2023-04-24T10:10:49;100426.72;;;6.63;43.19
44351;BME280;62766;62.622;17.912;2023-04-24T10:13:17;100430.28;;;6.68;43.34
44351;BME280;62766;62.622;17.912;2023-04-24T10:15:46;100430.51;;;6.80;42.95
44351;BME280;62766;62.622;17.912;2023-04-24T10:18:16;100434.80;;;6.91;43.36
44351;BME280;62766;62.622;17.912;2023-04-24T10:20:44;100436.53;;;7.20;43.27
44351;BME280;62766;62.622;17.912;2023-04-24T10:23:13;100433.36;;;7.34;42.53
44351;BME280;62766;62.622;17.912;2023-04-24T10:25:41;100430.47;;;7.57;42.25
44351;BME280;62766;62.622;17.912;2023-04-24T10:28:09;100427.76;;;7.20;41.87
44351;BME280;62766;62.622;17.912;2023-04-24T10:30:38;100430.92;;;7.18;42.21
44351;BME280;62766;62.622;17.912;2023-04-24T10:33:11;100425.48;;;7.30;42.01
44351;BME280;62766;62.622;17.912;2023-04-24T10:35:44;100426.03;;;7.31;41.87
44351;BME280;62766;62.622;17.912;2023-04-24T10:38:15;100422.04;;;7.25;41.91
44351;BME280;62766;62.622;17.912;2023-04-24T10:40:45;100422.47;;;7.45;42.14
44351;BME280;62766;62.622;17.912;2023-04-24T10:43:17;100421.51;;;7.49;41.36
44351;BME280;62766;62.622;17.912;2023-04-24T10:46:05;100426.20;;;7.78;41.39
44351;BME280;62766;62.622;17.912;2023-04-24T10:48:34;100430.15;;;7.72;41.14
44351;BME280;62766;62.622;17.912;2023-04-24T10:51:03;100430.13;;;7.86;41.32
44351;BME280;62766;62.622;17.912;2023-04-24T10:53:35;100430.57;;;7.77;41.42
44351;BME280;62766;62.622;17.912;2023-04-24T10:56:05;100435.36;;;7.74;41.17
44351;BME280;62766;62.622;17.912;2023-04-24T10:58:39;100442.76;;;7.66;41.17
44351;BME280;62766;62.622;17.912;2023-04-24T11:01:07;100447.20;;;7.67;40.48
44351;BME280;62766;62.622;17.912;2023-04-24T11:03:36;100453.20;;;7.60;40.46
44351;BME280;62766;62.622;17.912;2023-04-24T11:06:06;100459.21;;;7.56;40.68
44351;BME280;62766;62.622;17.912;2023-04-24T11:08:39;100469.41;;;7.67;41.02
44351;BME280;62766;62.622;17.912;2023-04-24T11:11:12;100473.59;;;7.45;40.65
44351;BME280;62766;62.622;17.912;2023-04-24T11:14:14;100479.42;;;7.51;40.41
44351;BME280;62766;62.622;17.912;2023-04-24T11:16:44;100479.09;;;7.41;40.38
44351;BME280;62766;62.622;17.912;2023-04-24T11:19:21;100481.09;;;7.31;40.28
44351;BME280;62766;62.622;17.912;2023-04-24T11:21:55;100477.93;;;7.45;40.18
44351;BME280;62766;62.622;17.912;2023-04-24T11:24:25;100478.09;;;7.41;39.96
44351;BME280;62766;62.622;17.912;2023-04-24T11:26:54;100478.42;;;7.57;39.94
44351;BME280;62766;62.622;17.912;2023-04-24T11:29:22;100479.58;;;7.65;40.04
44351;BME280;62766;62.622;17.912;2023-04-24T11:31:50;100484.80;;;7.56;39.84
44351;BME280;62766;62.622;17.912;2023-04-24T11:34:20;100486.69;;;7.51;40.30
44351;BME280;62766;62.622;17.912;2023-04-24T11:36:48;100490.41;;;7.47;40.06
44351;BME280;62766;62.622;17.912;2023-04-24T11:39:17;100498.19;;;7.43;39.81
44351;BME280;62766;62.622;17.912;2023-04-24T11:41:46;100506.45;;;7.25;39.82
44351;BME280;62766;62.622;17.912;2023-04-24T11:44:19;100505.93;;;7.03;40.38
44351;BME280;62766;62.622;17.912;2023-04-24T11:46:49;100500.22;;;7.05;40.79
44351;BME280;62766;62.622;17.912;2023-04-24T11:49:18;100497.78;;;7.14;40.42
44351;BME280;62766;62.622;17.912;2023-04-24T11:51:47;100495.33;;;7.03;40.50
44351;BME280;62766;62.622;17.912;2023-04-24T11:54:15;100496.66;;;7.01;40.59
44351;BME280;62766;62.622;17.912;2023-04-24T11:56:44;100495.50;;;7.15;40.80
44351;BME280;62766;62.622;17.912;2023-04-24T11:59:14;100491.29;;;7.07;40.31
44351;BME280;62766;62.622;17.912;2023-04-24T12:01:44;100497.06;;;6.99;40.52
44351;BME280;62766;62.622;17.912;2023-04-24T12:04:12;100506.55;;;7.07;40.50
44351;BME280;62766;62.622;17.912;2023-04-24T12:06:59;100518.09;;;7.17;40.70
44351;BME280;62766;62.622;17.912;2023-04-24T12:09:28;100523.84;;;6.87;40.72
44351;BME280;62766;62.622;17.912;2023-04-24T12:11:56;100526.22;;;6.74;40.83
44351;BME280;62766;62.622;17.912;2023-04-24T12:14:24;100528.68;;;6.51;40.74
44351;BME280;62766;62.622;17.912;2023-04-24T12:16:53;100530.30;;;6.53;41.38
44351;BME280;62766;62.622;17.912;2023-04-24T12:19:22;100530.19;;;6.59;41.58
44351;BME280;62766;62.622;17.912;2023-04-24T12:22:00;100530.86;;;6.72;41.12
44351;BME280;62766;62.622;17.912;2023-04-24T12:24:28;100530.09;;;6.53;41.38
44351;BME280;62766;62.622;17.912;2023-04-24T12:26:57;100526.17;;;6.47;41.48
44351;BME280;62766;62.622;17.912;2023-04-24T12:29:25;100529.26;;;7.02;41.16
44351;BME280;62766;62.622;17.912;2023-04-24T12:31:54;100536.60;;;6.97;40.83
44351;BME280;62766;62.622;17.912;2023-04-24T12:34:23;100533.03;;;6.89;39.86
44351;BME280;62766;62.622;17.912;2023-04-24T12:36:52;100536.42;;;6.73;39.81
44351;BME280;62766;62.622;17.912;2023-04-24T12:39:20;100538.21;;;6.53;39.55
44351;BME280;62766;62.622;17.912;2023-04-24T12:41:54;100539.96;;;6.69;39.60
44351;BME280;62766;62.622;17.912;2023-04-24T12:44:29;100542.72;;;6.64;38.96
44351;BME280;62766;62.622;17.912;2023-04-24T12:46:57;100547.75;;;6.60;39.33
44351;BME280;62766;62.622;17.912;2023-04-24T12:49:26;100552.79;;;6.70;39.31
44351;BME280;62766;62.622;17.912;2023-04-24T12:51:54;100556.67;;;6.69;39.28
44351;BME280;62766;62.622;17.912;2023-04-24T12:54:23;100559.36;;;6.58;39.21
44351;BME280;62766;62.622;17.912;2023-04-24T12:56:51;100565.85;;;6.45;39.83
44351;BME280;62766;62.622;17.912;2023-04-24T12:59:19;100570.16;;;6.21;39.63
44351;BME280;62766;62.622;17.912;2023-04-24T13:01:48;100577.81;;;6.26;39.86
44351;BME280;62766;62.622;17.912;2023-04-24T13:04:16;100580.90;;;6.28;39.78
44351;BME280;62766;62.622;17.912;2023-04-24T13:06:44;100575.19;;;6.27;39.66
44351;BME280;62766;62.622;17.912;2023-04-24T13:09:13;100567.47;;;6.41;39.94